Nearby METAR Reports

 

KHQM - Hoquiam,WA, USA
Updated: 03/29/2020 3:53pm
Overcast
Overcast
 Wind from SW
Wind: SW 12 mph , 19 km/h
Temperature: 52°F , 11°C
Dew Point: 43°F , 6°C
Humidity: 72%
Barometer: 29.87 inHg , 1011.5 hPa
Clouds: Overcast
Visibility: 10 miles , 16 km
Cloud details: Mostly cloudy 3600 ft
Overcast 4400 ft
2020/03/29 22:53 KHQM 292253Z AUTO 23010KT 10SM BKN036 OVC044 11/06 A2987 RMK AO2 SLP119 T01060056